Terminal Aerodrome Forecast
Issued by NWS Quad Cities IA IL

Home | Current Version | Previous Version | Text Only | Print | Product List | Glossary On
Versions: 1 2 3 4 5 6 7 8 9 10 11 12 13 14 15 16 17 18
000
FTUS43 KDVN 061402 AAA
TAFDBQ
TAF AMD
KDBQ 061402Z 0614/0712 21010KT 4SM BR VCTS BKN050CB
      TEMPO 0614/0616 1 1/2SM TSRA BR OVC025CB
     FM062000 23012G20KT P6SM BKN050
      TEMPO 0621/0701 3SM TSRA OVC025CB
     FM070100 26012KT 4SM TSRA BR OVC030CB
     FM070400 35012KT P6SM BKN035=

USA.gov is the U.S. government's official web portal to all federal, state and local government web resources and services.